sensor_id;sensor_type;location;lat;lon;timestamp;P1;durP1;ratioP1;P2;durP2;ratioP2
37051;SDS011;22964;52.272;13.356;2023-05-07T00:01:58;8.57;;;6.47;;
37051;SDS011;22964;52.272;13.356;2023-05-07T00:04:24;10.68;;;6.50;;
37051;SDS011;22964;52.272;13.356;2023-05-07T00:06:50;10.35;;;6.78;;
37051;SDS011;22964;52.272;13.356;2023-05-07T00:09:16;9.85;;;6.38;;
37051;SDS011;22964;52.272;13.356;2023-05-07T00:11:42;11.52;;;6.70;;
37051;SDS011;22964;52.272;13.356;2023-05-07T00:14:07;11.82;;;6.60;;
37051;SDS011;22964;52.272;13.356;2023-05-07T00:16:33;9.98;;;6.03;;
37051;SDS011;22964;52.272;13.356;2023-05-07T00:18:59;8.02;;;5.55;;
37051;SDS011;22964;52.272;13.356;2023-05-07T00:21:25;8.90;;;6.18;;
37051;SDS011;22964;52.272;13.356;2023-05-07T00:23:52;10.15;;;6.63;;
37051;SDS011;22964;52.272;13.356;2023-05-07T00:26:18;12.23;;;7.00;;
37051;SDS011;22964;52.272;13.356;2023-05-07T00:28:46;10.13;;;6.88;;
37051;SDS011;22964;52.272;13.356;2023-05-07T00:31:12;8.57;;;6.18;;
37051;SDS011;22964;52.272;13.356;2023-05-07T00:33:38;8.75;;;5.82;;
37051;SDS011;22964;52.272;13.356;2023-05-07T00:36:04;8.18;;;5.85;;
37051;SDS011;22964;52.272;13.356;2023-05-07T00:38:30;8.90;;;5.95;;
37051;SDS011;22964;52.272;13.356;2023-05-07T00:40:55;9.60;;;5.88;;
37051;SDS011;22964;52.272;13.356;2023-05-07T00:43:21;8.80;;;6.13;;
37051;SDS011;22964;52.272;13.356;2023-05-07T00:45:47;9.18;;;6.35;;
37051;SDS011;22964;52.272;13.356;2023-05-07T00:48:13;9.30;;;6.15;;
37051;SDS011;22964;52.272;13.356;2023-05-07T00:50:38;9.25;;;6.28;;
37051;SDS011;22964;52.272;13.356;2023-05-07T00:53:04;9.13;;;5.88;;
37051;SDS011;22964;52.272;13.356;2023-05-07T00:55:32;9.15;;;5.95;;
37051;SDS011;22964;52.272;13.356;2023-05-07T00:57:58;10.13;;;6.40;;
37051;SDS011;22964;52.272;13.356;2023-05-07T01:00:23;9.10;;;6.13;;
37051;SDS011;22964;52.272;13.356;2023-05-07T01:02:50;8.32;;;5.90;;
37051;SDS011;22964;52.272;13.356;2023-05-07T01:05:16;10.48;;;6.50;;
37051;SDS011;22964;52.272;13.356;2023-05-07T01:07:44;8.80;;;5.85;;
37051;SDS011;22964;52.272;13.356;2023-05-07T01:10:10;9.82;;;6.15;;
37051;SDS011;22964;52.272;13.356;2023-05-07T01:12:37;8.93;;;6.35;;
37051;SDS011;22964;52.272;13.356;2023-05-07T01:15:05;10.07;;;5.78;;
37051;SDS011;22964;52.272;13.356;2023-05-07T01:17:33;7.75;;;5.40;;
37051;SDS011;22964;52.272;13.356;2023-05-07T01:20:07;8.98;;;5.35;;
37051;SDS011;22964;52.272;13.356;2023-05-07T01:22:35;11.20;;;5.72;;
37051;SDS011;22964;52.272;13.356;2023-05-07T01:25:06;11.25;;;5.47;;
37051;SDS011;22964;52.272;13.356;2023-05-07T01:27:34;8.38;;;5.60;;
37051;SDS011;22964;52.272;13.356;2023-05-07T01:30:01;8.55;;;5.32;;
37051;SDS011;22964;52.272;13.356;2023-05-07T01:35:17;7.95;;;5.30;;
37051;SDS011;22964;52.272;13.356;2023-05-07T01:37:46;7.60;;;5.50;;
37051;SDS011;22964;52.272;13.356;2023-05-07T01:40:13;7.30;;;5.50;;
37051;SDS011;22964;52.272;13.356;2023-05-07T01:42:39;9.10;;;5.25;;
37051;SDS011;22964;52.272;13.356;2023-05-07T01:45:06;9.15;;;5.35;;
37051;SDS011;22964;52.272;13.356;2023-05-07T01:47:32;7.15;;;5.13;;
37051;SDS011;22964;52.272;13.356;2023-05-07T01:49:59;8.32;;;5.40;;
37051;SDS011;22964;52.272;13.356;2023-05-07T01:52:25;8.10;;;5.05;;
37051;SDS011;22964;52.272;13.356;2023-05-07T01:54:53;7.47;;;5.30;;
37051;SDS011;22964;52.272;13.356;2023-05-07T01:57:18;7.82;;;5.35;;
37051;SDS011;22964;52.272;13.356;2023-05-07T01:59:44;7.28;;;5.30;;
37051;SDS011;22964;52.272;13.356;2023-05-07T02:02:10;8.07;;;5.65;;
37051;SDS011;22964;52.272;13.356;2023-05-07T02:04:39;9.75;;;5.93;;
37051;SDS011;22964;52.272;13.356;2023-05-07T02:07:05;9.02;;;5.72;;
37051;SDS011;22964;52.272;13.356;2023-05-07T02:09:31;8.68;;;5.40;;
37051;SDS011;22964;52.272;13.356;2023-05-07T02:11:56;7.95;;;5.38;;
37051;SDS011;22964;52.272;13.356;2023-05-07T02:14:23;7.65;;;5.60;;
37051;SDS011;22964;52.272;13.356;2023-05-07T02:16:48;8.63;;;6.10;;
37051;SDS011;22964;52.272;13.356;2023-05-07T02:19:15;10.20;;;5.90;;
37051;SDS011;22964;52.272;13.356;2023-05-07T02:21:40;9.93;;;6.78;;
37051;SDS011;22964;52.272;13.356;2023-05-07T02:24:06;8.50;;;6.05;;
37051;SDS011;22964;52.272;13.356;2023-05-07T02:26:32;9.77;;;6.68;;
37051;SDS011;22964;52.272;13.356;2023-05-07T02:28:59;8.38;;;6.40;;
37051;SDS011;22964;52.272;13.356;2023-05-07T02:31:25;8.82;;;6.28;;
37051;SDS011;22964;52.272;13.356;2023-05-07T02:33:50;8.25;;;6.15;;
37051;SDS011;22964;52.272;13.356;2023-05-07T02:36:16;11.40;;;6.43;;
37051;SDS011;22964;52.272;13.356;2023-05-07T02:38:49;9.30;;;6.35;;
37051;SDS011;22964;52.272;13.356;2023-05-07T02:41:15;8.73;;;6.28;;
37051;SDS011;22964;52.272;13.356;2023-05-07T02:43:40;10.35;;;5.75;;
37051;SDS011;22964;52.272;13.356;2023-05-07T02:46:07;9.48;;;5.53;;
37051;SDS011;22964;52.272;13.356;2023-05-07T02:48:37;7.63;;;5.95;;
37051;SDS011;22964;52.272;13.356;2023-05-07T02:51:03;8.95;;;5.90;;
37051;SDS011;22964;52.272;13.356;2023-05-07T02:53:31;7.55;;;5.60;;
37051;SDS011;22964;52.272;13.356;2023-05-07T02:55:57;7.88;;;5.60;;
37051;SDS011;22964;52.272;13.356;2023-05-07T02:58:23;9.88;;;5.63;;
37051;SDS011;22964;52.272;13.356;2023-05-07T03:00:49;7.03;;;5.63;;
37051;SDS011;22964;52.272;13.356;2023-05-07T03:03:26;8.98;;;5.30;;
37051;SDS011;22964;52.272;13.356;2023-05-07T03:05:52;8.93;;;5.38;;
37051;SDS011;22964;52.272;13.356;2023-05-07T03:08:18;8.20;;;5.65;;
37051;SDS011;22964;52.272;13.356;2023-05-07T03:10:44;10.43;;;6.07;;
37051;SDS011;22964;52.272;13.356;2023-05-07T03:13:10;8.48;;;6.35;;
37051;SDS011;22964;52.272;13.356;2023-05-07T03:15:36;8.13;;;5.80;;
37051;SDS011;22964;52.272;13.356;2023-05-07T03:18:01;7.43;;;5.60;;
37051;SDS011;22964;52.272;13.356;2023-05-07T03:20:27;9.95;;;6.53;;
37051;SDS011;22964;52.272;13.356;2023-05-07T03:22:53;9.65;;;6.40;;
37051;SDS011;22964;52.272;13.356;2023-05-07T03:25:19;8.65;;;6.80;;
37051;SDS011;22964;52.272;13.356;2023-05-07T03:27:45;10.05;;;6.57;;
37051;SDS011;22964;52.272;13.356;2023-05-07T03:30:11;9.70;;;6.57;;
37051;SDS011;22964;52.272;13.356;2023-05-07T03:32:37;10.35;;;7.03;;
37051;SDS011;22964;52.272;13.356;2023-05-07T03:35:06;10.20;;;6.70;;
37051;SDS011;22964;52.272;13.356;2023-05-07T03:37:32;11.10;;;6.80;;
37051;SDS011;22964;52.272;13.356;2023-05-07T03:39:58;9.27;;;6.40;;
37051;SDS011;22964;52.272;13.356;2023-05-07T03:42:25;9.40;;;6.30;;
37051;SDS011;22964;52.272;13.356;2023-05-07T03:44:51;8.82;;;6.35;;
37051;SDS011;22964;52.272;13.356;2023-05-07T03:47:18;9.65;;;6.55;;
37051;SDS011;22964;52.272;13.356;2023-05-07T03:49:45;9.50;;;5.97;;
37051;SDS011;22964;52.272;13.356;2023-05-07T03:52:12;10.02;;;6.43;;
37051;SDS011;22964;52.272;13.356;2023-05-07T03:54:37;9.60;;;6.22;;
37051;SDS011;22964;52.272;13.356;2023-05-07T03:57:03;10.57;;;6.32;;
37051;SDS011;22964;52.272;13.356;2023-05-07T03:59:29;10.93;;;7.15;;
37051;SDS011;22964;52.272;13.356;2023-05-07T04:01:55;9.85;;;6.60;;
37051;SDS011;22964;52.272;13.356;2023-05-07T04:04:23;10.65;;;6.38;;
37051;SDS011;22964;52.272;13.356;2023-05-07T04:06:48;10.07;;;6.50;;
37051;SDS011;22964;52.272;13.356;2023-05-07T04:09:14;9.35;;;6.38;;
37051;SDS011;22964;52.272;13.356;2023-05-07T04:11:40;11.40;;;6.72;;
37051;SDS011;22964;52.272;13.356;2023-05-07T04:14:08;7.68;;;6.25;;
37051;SDS011;22964;52.272;13.356;2023-05-07T04:16:34;8.75;;;6.70;;
37051;SDS011;22964;52.272;13.356;2023-05-07T04:19:00;9.93;;;6.70;;
37051;SDS011;22964;52.272;13.356;2023-05-07T04:21:26;12.70;;;7.05;;
37051;SDS011;22964;52.272;13.356;2023-05-07T04:23:52;10.65;;;7.03;;
37051;SDS011;22964;52.272;13.356;2023-05-07T04:26:18;9.43;;;6.70;;
37051;SDS011;22964;52.272;13.356;2023-05-07T04:28:46;9.57;;;6.93;;
37051;SDS011;22964;52.272;13.356;2023-05-07T04:31:13;9.57;;;6.15;;
37051;SDS011;22964;52.272;13.356;2023-05-07T04:33:40;9.63;;;7.55;;
37051;SDS011;22964;52.272;13.356;2023-05-07T04:36:09;10.60;;;7.60;;
37051;SDS011;22964;52.272;13.356;2023-05-07T04:38:42;11.45;;;7.40;;
37051;SDS011;22964;52.272;13.356;2023-05-07T04:41:08;11.02;;;6.72;;
37051;SDS011;22964;52.272;13.356;2023-05-07T04:43:38;11.40;;;7.72;;
37051;SDS011;22964;52.272;13.356;2023-05-07T04:46:05;10.05;;;7.30;;
37051;SDS011;22964;52.272;13.356;2023-05-07T04:48:31;9.40;;;6.70;;
37051;SDS011;22964;52.272;13.356;2023-05-07T04:50:58;10.90;;;7.20;;
37051;SDS011;22964;52.272;13.356;2023-05-07T04:53:24;9.90;;;6.95;;
37051;SDS011;22964;52.272;13.356;2023-05-07T04:55:57;11.38;;;6.75;;
37051;SDS011;22964;52.272;13.356;2023-05-07T04:58:26;9.77;;;6.60;;
37051;SDS011;22964;52.272;13.356;2023-05-07T05:00:52;12.82;;;6.82;;
37051;SDS011;22964;52.272;13.356;2023-05-07T05:03:18;8.50;;;6.40;;
37051;SDS011;22964;52.272;13.356;2023-05-07T05:05:44;10.82;;;7.18;;
37051;SDS011;22964;52.272;13.356;2023-05-07T05:08:10;10.07;;;6.95;;
37051;SDS011;22964;52.272;13.356;2023-05-07T05:10:39;9.90;;;6.60;;
37051;SDS011;22964;52.272;13.356;2023-05-07T05:13:06;8.90;;;6.07;;
37051;SDS011;22964;52.272;13.356;2023-05-07T05:15:33;7.95;;;5.72;;
37051;SDS011;22964;52.272;13.356;2023-05-07T05:18:00;9.38;;;6.90;;
37051;SDS011;22964;52.272;13.356;2023-05-07T05:20:26;9.10;;;6.72;;
37051;SDS011;22964;52.272;13.356;2023-05-07T05:22:52;9.35;;;6.60;;
37051;SDS011;22964;52.272;13.356;2023-05-07T05:25:18;11.30;;;7.35;;
37051;SDS011;22964;52.272;13.356;2023-05-07T05:27:44;10.23;;;6.95;;
37051;SDS011;22964;52.272;13.356;2023-05-07T05:30:10;10.73;;;6.60;;
37051;SDS011;22964;52.272;13.356;2023-05-07T05:32:37;10.32;;;6.70;;
37051;SDS011;22964;52.272;13.356;2023-05-07T05:35:03;8.63;;;6.40;;
37051;SDS011;22964;52.272;13.356;2023-05-07T05:37:29;9.07;;;6.43;;
37051;SDS011;22964;52.272;13.356;2023-05-07T05:39:57;8.20;;;5.95;;
37051;SDS011;22964;52.272;13.356;2023-05-07T05:42:25;8.68;;;6.50;;
37051;SDS011;22964;52.272;13.356;2023-05-07T05:44:50;9.10;;;6.28;;
37051;SDS011;22964;52.272;13.356;2023-05-07T05:47:16;13.18;;;6.68;;
37051;SDS011;22964;52.272;13.356;2023-05-07T05:49:42;8.02;;;6.13;;
37051;SDS011;22964;52.272;13.356;2023-05-07T05:52:11;9.25;;;6.28;;
37051;SDS011;22964;52.272;13.356;2023-05-07T05:54:39;12.05;;;6.63;;
37051;SDS011;22964;52.272;13.356;2023-05-07T05:57:04;9.75;;;6.13;;
37051;SDS011;22964;52.272;13.356;2023-05-07T05:59:31;8.57;;;6.55;;
37051;SDS011;22964;52.272;13.356;2023-05-07T06:01:57;8.73;;;6.68;;
37051;SDS011;22964;52.272;13.356;2023-05-07T06:04:23;8.75;;;6.35;;
37051;SDS011;22964;52.272;13.356;2023-05-07T06:06:48;10.68;;;6.75;;
37051;SDS011;22964;52.272;13.356;2023-05-07T06:09:15;10.05;;;5.63;;
37051;SDS011;22964;52.272;13.356;2023-05-07T06:11:43;7.93;;;6.10;;
37051;SDS011;22964;52.272;13.356;2023-05-07T06:14:10;8.98;;;6.45;;
37051;SDS011;22964;52.272;13.356;2023-05-07T06:16:36;9.25;;;6.68;;
37051;SDS011;22964;52.272;13.356;2023-05-07T06:19:04;9.10;;;6.82;;
37051;SDS011;22964;52.272;13.356;2023-05-07T06:21:30;8.10;;;6.40;;
37051;SDS011;22964;52.272;13.356;2023-05-07T06:23:56;9.13;;;6.63;;
37051;SDS011;22964;52.272;13.356;2023-05-07T06:26:22;8.50;;;6.45;;
37051;SDS011;22964;52.272;13.356;2023-05-07T06:28:48;10.05;;;6.95;;
37051;SDS011;22964;52.272;13.356;2023-05-07T06:31:16;8.32;;;6.10;;
37051;SDS011;22964;52.272;13.356;2023-05-07T06:34:01;8.57;;;6.07;;
37051;SDS011;22964;52.272;13.356;2023-05-07T06:39:03;7.30;;;5.57;;
37051;SDS011;22964;52.272;13.356;2023-05-07T06:41:29;6.57;;;5.10;;
37051;SDS011;22964;52.272;13.356;2023-05-07T06:44:00;8.55;;;5.25;;
37051;SDS011;22964;52.272;13.356;2023-05-07T06:46:35;7.43;;;5.22;;
37051;SDS011;22964;52.272;13.356;2023-05-07T06:49:03;8.27;;;5.53;;
37051;SDS011;22964;52.272;13.356;2023-05-07T06:51:29;7.32;;;5.80;;
37051;SDS011;22964;52.272;13.356;2023-05-07T06:54:00;6.55;;;5.18;;
37051;SDS011;22964;52.272;13.356;2023-05-07T06:56:26;7.43;;;6.00;;
37051;SDS011;22964;52.272;13.356;2023-05-07T06:58:52;8.10;;;5.70;;
37051;SDS011;22964;52.272;13.356;2023-05-07T07:01:19;7.20;;;5.55;;
37051;SDS011;22964;52.272;13.356;2023-05-07T07:03:45;7.22;;;5.30;;
37051;SDS011;22964;52.272;13.356;2023-05-07T07:06:11;7.45;;;5.10;;
37051;SDS011;22964;52.272;13.356;2023-05-07T07:08:36;7.35;;;5.40;;
37051;SDS011;22964;52.272;13.356;2023-05-07T07:11:04;7.45;;;5.25;;
37051;SDS011;22964;52.272;13.356;2023-05-07T07:13:31;8.75;;;5.30;;
37051;SDS011;22964;52.272;13.356;2023-05-07T07:15:56;6.95;;;4.80;;
37051;SDS011;22964;52.272;13.356;2023-05-07T07:18:22;7.57;;;5.32;;
37051;SDS011;22964;52.272;13.356;2023-05-07T07:20:49;6.22;;;4.80;;
37051;SDS011;22964;52.272;13.356;2023-05-07T07:23:15;5.95;;;4.38;;
37051;SDS011;22964;52.272;13.356;2023-05-07T07:25:40;7.82;;;4.78;;
37051;SDS011;22964;52.272;13.356;2023-05-07T07:28:07;6.97;;;4.53;;
37051;SDS011;22964;52.272;13.356;2023-05-07T07:30:32;8.18;;;4.25;;
37051;SDS011;22964;52.272;13.356;2023-05-07T07:32:58;7.68;;;4.43;;
37051;SDS011;22964;52.272;13.356;2023-05-07T07:35:30;5.95;;;4.28;;
37051;SDS011;22964;52.272;13.356;2023-05-07T07:37:57;6.85;;;4.18;;
37051;SDS011;22964;52.272;13.356;2023-05-07T07:40:23;10.80;;;4.40;;
37051;SDS011;22964;52.272;13.356;2023-05-07T07:42:50;6.65;;;3.83;;
37051;SDS011;22964;52.272;13.356;2023-05-07T07:45:17;7.72;;;3.60;;
37051;SDS011;22964;52.272;13.356;2023-05-07T07:47:45;4.70;;;3.33;;
37051;SDS011;22964;52.272;13.356;2023-05-07T07:50:11;5.43;;;3.80;;
37051;SDS011;22964;52.272;13.356;2023-05-07T07:52:37;5.32;;;3.80;;
37051;SDS011;22964;52.272;13.356;2023-05-07T07:55:04;5.78;;;4.00;;
37051;SDS011;22964;52.272;13.356;2023-05-07T07:57:31;5.00;;;3.63;;
37051;SDS011;22964;52.272;13.356;2023-05-07T07:59:57;7.50;;;3.90;;
37051;SDS011;22964;52.272;13.356;2023-05-07T08:02:23;5.55;;;3.47;;
37051;SDS011;22964;52.272;13.356;2023-05-07T08:04:49;5.22;;;3.67;;
37051;SDS011;22964;52.272;13.356;2023-05-07T08:07:16;5.20;;;3.40;;
37051;SDS011;22964;52.272;13.356;2023-05-07T08:09:46;5.15;;;3.35;;
37051;SDS011;22964;52.272;13.356;2023-05-07T08:12:13;5.63;;;3.10;;
37051;SDS011;22964;52.272;13.356;2023-05-07T08:14:38;5.30;;;3.60;;
37051;SDS011;22964;52.272;13.356;2023-05-07T08:17:06;4.78;;;3.15;;
37051;SDS011;22964;52.272;13.356;2023-05-07T08:19:33;4.15;;;2.90;;
37051;SDS011;22964;52.272;13.356;2023-05-07T08:21:59;4.03;;;2.60;;
37051;SDS011;22964;52.272;13.356;2023-05-07T08:24:25;4.53;;;3.00;;
37051;SDS011;22964;52.272;13.356;2023-05-07T08:26:51;5.00;;;2.60;;
37051;SDS011;22964;52.272;13.356;2023-05-07T08:29:17;5.45;;;2.80;;
37051;SDS011;22964;52.272;13.356;2023-05-07T08:31:43;4.05;;;2.67;;
37051;SDS011;22964;52.272;13.356;2023-05-07T08:34:08;4.30;;;2.83;;
37051;SDS011;22964;52.272;13.356;2023-05-07T08:36:38;4.18;;;2.42;;
37051;SDS011;22964;52.272;13.356;2023-05-07T08:39:04;4.22;;;2.47;;
37051;SDS011;22964;52.272;13.356;2023-05-07T08:41:30;3.50;;;2.30;;
37051;SDS011;22964;52.272;13.356;2023-05-07T08:43:57;4.88;;;2.58;;
37051;SDS011;22964;52.272;13.356;2023-05-07T08:46:28;3.50;;;2.65;;
37051;SDS011;22964;52.272;13.356;2023-05-07T08:48:57;8.55;;;2.85;;
37051;SDS011;22964;52.272;13.356;2023-05-07T08:51:23;4.95;;;2.40;;
37051;SDS011;22964;52.272;13.356;2023-05-07T08:53:50;3.88;;;2.17;;
37051;SDS011;22964;52.272;13.356;2023-05-07T08:56:22;3.45;;;2.30;;
37051;SDS011;22964;52.272;13.356;2023-05-07T08:58:49;4.13;;;2.38;;
37051;SDS011;22964;52.272;13.356;2023-05-07T09:01:16;3.67;;;2.30;;
37051;SDS011;22964;52.272;13.356;2023-05-07T09:03:45;3.28;;;2.00;;
37051;SDS011;22964;52.272;13.356;2023-05-07T09:06:12;3.80;;;2.20;;
37051;SDS011;22964;52.272;13.356;2023-05-07T09:08:38;3.72;;;2.70;;
37051;SDS011;22964;52.272;13.356;2023-05-07T09:11:06;4.38;;;2.22;;
37051;SDS011;22964;52.272;13.356;2023-05-07T09:13:32;3.13;;;2.25;;
37051;SDS011;22964;52.272;13.356;2023-05-07T09:16:09;4.53;;;2.50;;
37051;SDS011;22964;52.272;13.356;2023-05-07T09:18:40;4.00;;;2.17;;
37051;SDS011;22964;52.272;13.356;2023-05-07T09:21:11;3.47;;;2.00;;
37051;SDS011;22964;52.272;13.356;2023-05-07T09:23:41;3.42;;;2.35;;
37051;SDS011;22964;52.272;13.356;2023-05-07T09:26:07;3.88;;;2.58;;
37051;SDS011;22964;52.272;13.356;2023-05-07T09:28:43;3.38;;;2.20;;
37051;SDS011;22964;52.272;13.356;2023-05-07T09:31:11;3.63;;;2.20;;
37051;SDS011;22964;52.272;13.356;2023-05-07T09:33:38;3.22;;;2.28;;
37051;SDS011;22964;52.272;13.356;2023-05-07T09:36:06;6.63;;;2.47;;
37051;SDS011;22964;52.272;13.356;2023-05-07T09:38:38;2.72;;;2.00;;
37051;SDS011;22964;52.272;13.356;2023-05-07T09:41:06;3.28;;;2.00;;
37051;SDS011;22964;52.272;13.356;2023-05-07T09:43:39;4.25;;;2.20;;
37051;SDS011;22964;52.272;13.356;2023-05-07T09:48:37;3.90;;;2.30;;
37051;SDS011;22964;52.272;13.356;2023-05-07T09:51:06;3.08;;;2.20;;
37051;SDS011;22964;52.272;13.356;2023-05-07T09:53:40;3.97;;;2.17;;
37051;SDS011;22964;52.272;13.356;2023-05-07T09:56:08;2.90;;;2.10;;
37051;SDS011;22964;52.272;13.356;2023-05-07T09:58:36;4.50;;;2.30;;
37051;SDS011;22964;52.272;13.356;2023-05-07T10:01:03;3.83;;;2.40;;
37051;SDS011;22964;52.272;13.356;2023-05-07T10:03:29;3.35;;;2.30;;
37051;SDS011;22964;52.272;13.356;2023-05-07T10:06:03;4.47;;;2.67;;
37051;SDS011;22964;52.272;13.356;2023-05-07T10:08:30;4.72;;;2.92;;
37051;SDS011;22964;52.272;13.356;2023-05-07T10:10:59;4.35;;;2.90;;
37051;SDS011;22964;52.272;13.356;2023-05-07T10:13:27;3.80;;;2.75;;
37051;SDS011;22964;52.272;13.356;2023-05-07T10:15:56;4.90;;;2.75;;
37051;SDS011;22964;52.272;13.356;2023-05-07T10:18:25;4.50;;;2.63;;
37051;SDS011;22964;52.272;13.356;2023-05-07T10:21:02;4.05;;;2.90;;
37051;SDS011;22964;52.272;13.356;2023-05-07T10:23:33;3.35;;;2.80;;
37051;SDS011;22964;52.272;13.356;2023-05-07T10:26:02;5.00;;;3.00;;
37051;SDS011;22964;52.272;13.356;2023-05-07T10:28:33;3.75;;;2.70;;
37051;SDS011;22964;52.272;13.356;2023-05-07T10:31:23;3.47;;;2.55;;
37051;SDS011;22964;52.272;13.356;2023-05-07T10:34:15;3.63;;;2.70;;
37051;SDS011;22964;52.272;13.356;2023-05-07T10:36:45;3.03;;;2.50;;
37051;SDS011;22964;52.272;13.356;2023-05-07T10:39:12;3.78;;;2.70;;
37051;SDS011;22964;52.272;13.356;2023-05-07T10:41:39;4.30;;;2.55;;
37051;SDS011;22964;52.272;13.356;2023-05-07T10:44:05;3.13;;;2.45;;
37051;SDS011;22964;52.272;13.356;2023-05-07T10:46:33;4.53;;;2.28;;
37051;SDS011;22964;52.272;13.356;2023-05-07T10:49:09;2.88;;;2.08;;
37051;SDS011;22964;52.272;13.356;2023-05-07T10:52:15;2.90;;;2.20;;
37051;SDS011;22964;52.272;13.356;2023-05-07T10:57:46;3.15;;;2.03;;
37051;SDS011;22964;52.272;13.356;2023-05-07T11:08:18;3.28;;;1.80;;
37051;SDS011;22964;52.272;13.356;2023-05-07T11:11:04;3.15;;;2.33;;
37051;SDS011;22964;52.272;13.356;2023-05-07T11:13:45;3.00;;;1.83;;
37051;SDS011;22964;52.272;13.356;2023-05-07T11:16:33;2.67;;;2.00;;
37051;SDS011;22964;52.272;13.356;2023-05-07T11:19:14;6.57;;;2.05;;
37051;SDS011;22964;52.272;13.356;2023-05-07T11:21:44;3.00;;;2.22;;
37051;SDS011;22964;52.272;13.356;2023-05-07T11:24:16;3.15;;;1.80;;
37051;SDS011;22964;52.272;13.356;2023-05-07T11:26:59;3.20;;;1.80;;
37051;SDS011;22964;52.272;13.356;2023-05-07T11:29:26;3.45;;;1.50;;
37051;SDS011;22964;52.272;13.356;2023-05-07T11:31:58;2.45;;;1.63;;
37051;SDS011;22964;52.272;13.356;2023-05-07T11:34:29;1.92;;;1.52;;
37051;SDS011;22964;52.272;13.356;2023-05-07T11:36:57;2.42;;;1.60;;
37051;SDS011;22964;52.272;13.356;2023-05-07T11:39:36;2.80;;;1.52;;
37051;SDS011;22964;52.272;13.356;2023-05-07T11:42:02;4.47;;;1.85;;
37051;SDS011;22964;52.272;13.356;2023-05-07T11:44:43;3.88;;;1.90;;
37051;SDS011;22964;52.272;13.356;2023-05-07T11:47:11;3.42;;;2.00;;
37051;SDS011;22964;52.272;13.356;2023-05-07T11:49:42;5.17;;;1.80;;
37051;SDS011;22964;52.272;13.356;2023-05-07T11:52:07;2.63;;;1.75;;
37051;SDS011;22964;52.272;13.356;2023-05-07T11:54:37;2.70;;;1.80;;
37051;SDS011;22964;52.272;13.356;2023-05-07T11:57:03;2.53;;;1.67;;
37051;SDS011;22964;52.272;13.356;2023-05-07T11:59:28;3.38;;;1.80;;
37051;SDS011;22964;52.272;13.356;2023-05-07T12:01:57;1.95;;;1.50;;
37051;SDS011;22964;52.272;13.356;2023-05-07T12:04:24;3.88;;;1.70;;
37051;SDS011;22964;52.272;13.356;2023-05-07T12:06:53;2.40;;;1.50;;
37051;SDS011;22964;52.272;13.356;2023-05-07T12:09:20;4.25;;;1.77;;
37051;SDS011;22964;52.272;13.356;2023-05-07T12:11:46;2.20;;;1.60;;
37051;SDS011;22964;52.272;13.356;2023-05-07T12:14:12;3.67;;;1.60;;
37051;SDS011;22964;52.272;13.356;2023-05-07T12:16:39;2.15;;;1.40;;
37051;SDS011;22964;52.272;13.356;2023-05-07T12:19:05;2.80;;;1.60;;
37051;SDS011;22964;52.272;13.356;2023-05-07T12:21:34;2.08;;;1.50;;
37051;SDS011;22964;52.272;13.356;2023-05-07T12:24:00;3.20;;;1.85;;
37051;SDS011;22964;52.272;13.356;2023-05-07T12:26:26;2.40;;;1.45;;
37051;SDS011;22964;52.272;13.356;2023-05-07T12:28:52;2.42;;;1.50;;
37051;SDS011;22964;52.272;13.356;2023-05-07T12:31:18;3.50;;;1.50;;
37051;SDS011;22964;52.272;13.356;2023-05-07T12:33:44;2.58;;;1.70;;
37051;SDS011;22964;52.272;13.356;2023-05-07T12:36:11;3.03;;;1.60;;
37051;SDS011;22964;52.272;13.356;2023-05-07T12:38:38;2.45;;;1.70;;
37051;SDS011;22964;52.272;13.356;2023-05-07T12:41:05;3.65;;;1.60;;
37051;SDS011;22964;52.272;13.356;2023-05-07T12:43:33;2.97;;;1.60;;
37051;SDS011;22964;52.272;13.356;2023-05-07T12:46:06;3.58;;;1.33;;
37051;SDS011;22964;52.272;13.356;2023-05-07T12:48:32;1.95;;;1.20;;
37051;SDS011;22964;52.272;13.356;2023-05-07T12:51:01;2.20;;;1.40;;
37051;SDS011;22964;52.272;13.356;2023-05-07T12:53:27;1.85;;;1.20;;
37051;SDS011;22964;52.272;13.356;2023-05-07T12:55:54;3.15;;;1.67;;
37051;SDS011;22964;52.272;13.356;2023-05-07T12:58:28;2.00;;;1.30;;
37051;SDS011;22964;52.272;13.356;2023-05-07T13:00:56;2.10;;;1.10;;
37051;SDS011;22964;52.272;13.356;2023-05-07T13:03:26;1.80;;;1.20;;
37051;SDS011;22964;52.272;13.356;2023-05-07T13:05:58;2.45;;;1.00;;
37051;SDS011;22964;52.272;13.356;2023-05-07T13:10:51;2.55;;;1.40;;
37051;SDS011;22964;52.272;13.356;2023-05-07T13:13:18;3.05;;;1.40;;
37051;SDS011;22964;52.272;13.356;2023-05-07T13:15:45;2.00;;;1.30;;
37051;SDS011;22964;52.272;13.356;2023-05-07T13:18:11;1.98;;;1.30;;
37051;SDS011;22964;52.272;13.356;2023-05-07T13:20:37;2.47;;;1.33;;
37051;SDS011;22964;52.272;13.356;2023-05-07T13:23:03;2.33;;;1.30;;
37051;SDS011;22964;52.272;13.356;2023-05-07T13:25:29;2.10;;;1.30;;
37051;SDS011;22964;52.272;13.356;2023-05-07T13:27:59;1.77;;;1.30;;
37051;SDS011;22964;52.272;13.356;2023-05-07T13:30:25;1.95;;;1.40;;
37051;SDS011;22964;52.272;13.356;2023-05-07T13:32:51;1.55;;;1.08;;
37051;SDS011;22964;52.272;13.356;2023-05-07T13:35:20;2.85;;;1.40;;
37051;SDS011;22964;52.272;13.356;2023-05-07T13:37:46;2.15;;;1.30;;
37051;SDS011;22964;52.272;13.356;2023-05-07T13:40:13;2.40;;;1.55;;
37051;SDS011;22964;52.272;13.356;2023-05-07T13:42:39;3.33;;;1.30;;
37051;SDS011;22964;52.272;13.356;2023-05-07T13:45:05;1.85;;;1.08;;
37051;SDS011;22964;52.272;13.356;2023-05-07T13:47:31;2.95;;;1.13;;
37051;SDS011;22964;52.272;13.356;2023-05-07T13:49:56;1.45;;;1.20;;
37051;SDS011;22964;52.272;13.356;2023-05-07T13:52:22;1.67;;;1.20;;
37051;SDS011;22964;52.272;13.356;2023-05-07T13:54:48;2.05;;;1.30;;
37051;SDS011;22964;52.272;13.356;2023-05-07T13:57:13;1.90;;;1.15;;
37051;SDS011;22964;52.272;13.356;2023-05-07T13:59:40;2.60;;;1.20;;
37051;SDS011;22964;52.272;13.356;2023-05-07T14:02:06;1.30;;;1.13;;
37051;SDS011;22964;52.272;13.356;2023-05-07T14:04:31;1.55;;;1.10;;
37051;SDS011;22964;52.272;13.356;2023-05-07T14:06:57;1.55;;;1.10;;
37051;SDS011;22964;52.272;13.356;2023-05-07T14:09:23;2.05;;;1.25;;
37051;SDS011;22964;52.272;13.356;2023-05-07T14:11:48;2.25;;;1.40;;
37051;SDS011;22964;52.272;13.356;2023-05-07T14:14:19;3.92;;;1.83;;
37051;SDS011;22964;52.272;13.356;2023-05-07T14:16:45;1.55;;;1.10;;
37051;SDS011;22964;52.272;13.356;2023-05-07T14:19:13;1.08;;;0.90;;
37051;SDS011;22964;52.272;13.356;2023-05-07T14:21:39;3.38;;;1.30;;
37051;SDS011;22964;52.272;13.356;2023-05-07T14:24:06;2.88;;;1.25;;
37051;SDS011;22964;52.272;13.356;2023-05-07T14:26:33;2.47;;;1.20;;
37051;SDS011;22964;52.272;13.356;2023-05-07T14:28:59;1.50;;;1.02;;
37051;SDS011;22964;52.272;13.356;2023-05-07T14:31:25;1.70;;;1.10;;
37051;SDS011;22964;52.272;13.356;2023-05-07T14:33:51;1.40;;;1.00;;
37051;SDS011;22964;52.272;13.356;2023-05-07T14:36:17;1.92;;;1.20;;
37051;SDS011;22964;52.272;13.356;2023-05-07T14:38:45;2.60;;;1.25;;
37051;SDS011;22964;52.272;13.356;2023-05-07T14:41:11;1.80;;;1.08;;
37051;SDS011;22964;52.272;13.356;2023-05-07T14:43:37;3.08;;;1.08;;
37051;SDS011;22964;52.272;13.356;2023-05-07T14:46:03;1.92;;;1.20;;
37051;SDS011;22964;52.272;13.356;2023-05-07T14:48:28;2.10;;;1.20;;
37051;SDS011;22964;52.272;13.356;2023-05-07T14:50:54;1.70;;;1.17;;
37051;SDS011;22964;52.272;13.356;2023-05-07T14:53:20;3.47;;;1.30;;
37051;SDS011;22964;52.272;13.356;2023-05-07T14:55:47;6.90;;;1.50;;
37051;SDS011;22964;52.272;13.356;2023-05-07T14:58:13;2.00;;;1.20;;